sensor_id;sensor_type;location;lat;lon;timestamp;P1;durP1;ratioP1;P2;durP2;ratioP2
68319;SDS011;55168;51.120;17.024;2022-07-29T00:00:00;7.3;;;4.0;;
68319;SDS011;55168;51.120;17.024;2022-07-29T00:01:00;7.3;;;4.0;;
68319;SDS011;55168;51.120;17.024;2022-07-29T00:02:00;7.3;;;4.0;;
68319;SDS011;55168;51.120;17.024;2022-07-29T00:03:00;5.8;;;3.9;;
68319;SDS011;55168;51.120;17.024;2022-07-29T00:04:00;5.8;;;3.9;;
68319;SDS011;55168;51.120;17.024;2022-07-29T00:05:00;5.8;;;3.9;;
68319;SDS011;55168;51.120;17.024;2022-07-29T00:06:00;5.8;;;3.9;;
68319;SDS011;55168;51.120;17.024;2022-07-29T00:07:00;5.8;;;3.9;;
68319;SDS011;55168;51.120;17.024;2022-07-29T00:08:00;6.9;;;3.8;;
68319;SDS011;55168;51.120;17.024;2022-07-29T00:09:00;6.9;;;3.8;;
68319;SDS011;55168;51.120;17.024;2022-07-29T00:10:00;6.9;;;3.8;;
68319;SDS011;55168;51.120;17.024;2022-07-29T00:11:00;6.9;;;3.8;;
68319;SDS011;55168;51.120;17.024;2022-07-29T00:12:01;6.9;;;3.8;;
68319;SDS011;55168;51.120;17.024;2022-07-29T00:13:00;8.8;;;4.1;;
68319;SDS011;55168;51.120;17.024;2022-07-29T00:14:00;8.8;;;4.1;;
68319;SDS011;55168;51.120;17.024;2022-07-29T00:15:00;8.8;;;4.1;;
68319;SDS011;55168;51.120;17.024;2022-07-29T00:16:00;8.8;;;4.1;;
68319;SDS011;55168;51.120;17.024;2022-07-29T00:17:00;8.8;;;4.1;;
68319;SDS011;55168;51.120;17.024;2022-07-29T00:18:00;6.9;;;4.1;;
68319;SDS011;55168;51.120;17.024;2022-07-29T00:19:00;6.9;;;4.1;;
68319;SDS011;55168;51.120;17.024;2022-07-29T00:20:00;6.9;;;4.1;;
68319;SDS011;55168;51.120;17.024;2022-07-29T00:21:00;6.9;;;4.1;;
68319;SDS011;55168;51.120;17.024;2022-07-29T00:22:01;6.9;;;4.1;;
68319;SDS011;55168;51.120;17.024;2022-07-29T00:23:00;5.5;;;4.1;;
68319;SDS011;55168;51.120;17.024;2022-07-29T00:24:00;5.5;;;4.1;;
68319;SDS011;55168;51.120;17.024;2022-07-29T00:25:00;5.5;;;4.1;;
68319;SDS011;55168;51.120;17.024;2022-07-29T00:26:00;5.5;;;4.1;;
68319;SDS011;55168;51.120;17.024;2022-07-29T00:27:00;5.5;;;4.1;;
68319;SDS011;55168;51.120;17.024;2022-07-29T00:28:00;6.8;;;4.2;;
68319;SDS011;55168;51.120;17.024;2022-07-29T00:29:01;6.8;;;4.2;;
68319;SDS011;55168;51.120;17.024;2022-07-29T00:30:00;6.8;;;4.2;;
68319;SDS011;55168;51.120;17.024;2022-07-29T00:31:00;6.8;;;4.2;;
68319;SDS011;55168;51.120;17.024;2022-07-29T00:32:00;6.8;;;4.2;;
68319;SDS011;55168;51.120;17.024;2022-07-29T00:33:00;5.4;;;4.0;;
68319;SDS011;55168;51.120;17.024;2022-07-29T00:34:00;5.4;;;4.0;;
68319;SDS011;55168;51.120;17.024;2022-07-29T00:35:00;5.4;;;4.0;;
68319;SDS011;55168;51.120;17.024;2022-07-29T00:36:00;5.4;;;4.0;;
68319;SDS011;55168;51.120;17.024;2022-07-29T00:37:00;5.4;;;4.0;;
68319;SDS011;55168;51.120;17.024;2022-07-29T00:38:00;6.9;;;4.0;;
68319;SDS011;55168;51.120;17.024;2022-07-29T00:39:00;6.9;;;4.0;;
68319;SDS011;55168;51.120;17.024;2022-07-29T00:40:00;6.9;;;4.0;;
68319;SDS011;55168;51.120;17.024;2022-07-29T00:41:00;6.9;;;4.0;;
68319;SDS011;55168;51.120;17.024;2022-07-29T00:42:02;6.9;;;4.0;;
68319;SDS011;55168;51.120;17.024;2022-07-29T00:43:00;6.5;;;4.1;;
68319;SDS011;55168;51.120;17.024;2022-07-29T00:44:00;6.5;;;4.1;;
68319;SDS011;55168;51.120;17.024;2022-07-29T00:45:00;6.5;;;4.1;;
68319;SDS011;55168;51.120;17.024;2022-07-29T00:46:00;6.5;;;4.1;;
68319;SDS011;55168;51.120;17.024;2022-07-29T00:47:00;6.5;;;4.1;;
68319;SDS011;55168;51.120;17.024;2022-07-29T00:48:00;6.7;;;4.3;;
68319;SDS011;55168;51.120;17.024;2022-07-29T00:49:00;6.7;;;4.3;;
68319;SDS011;55168;51.120;17.024;2022-07-29T00:50:00;6.7;;;4.3;;
68319;SDS011;55168;51.120;17.024;2022-07-29T00:51:02;6.7;;;4.3;;
68319;SDS011;55168;51.120;17.024;2022-07-29T00:52:02;6.7;;;4.3;;
68319;SDS011;55168;51.120;17.024;2022-07-29T00:53:00;5.2;;;3.9;;
68319;SDS011;55168;51.120;17.024;2022-07-29T00:54:00;5.2;;;3.9;;
68319;SDS011;55168;51.120;17.024;2022-07-29T00:55:00;5.2;;;3.9;;
68319;SDS011;55168;51.120;17.024;2022-07-29T00:56:00;5.2;;;3.9;;
68319;SDS011;55168;51.120;17.024;2022-07-29T00:57:00;5.2;;;3.9;;
68319;SDS011;55168;51.120;17.024;2022-07-29T00:58:00;6.5;;;4.4;;
68319;SDS011;55168;51.120;17.024;2022-07-29T00:59:00;6.5;;;4.4;;
68319;SDS011;55168;51.120;17.024;2022-07-29T01:00:00;6.5;;;4.4;;
68319;SDS011;55168;51.120;17.024;2022-07-29T01:01:00;6.5;;;4.4;;
68319;SDS011;55168;51.120;17.024;2022-07-29T01:02:00;6.5;;;4.4;;
68319;SDS011;55168;51.120;17.024;2022-07-29T01:03:00;5.8;;;4.4;;
68319;SDS011;55168;51.120;17.024;2022-07-29T01:04:00;5.8;;;4.4;;
68319;SDS011;55168;51.120;17.024;2022-07-29T01:05:01;5.8;;;4.4;;
68319;SDS011;55168;51.120;17.024;2022-07-29T01:06:00;5.8;;;4.4;;
68319;SDS011;55168;51.120;17.024;2022-07-29T01:07:01;5.8;;;4.4;;
68319;SDS011;55168;51.120;17.024;2022-07-29T01:08:00;6.6;;;4.2;;
68319;SDS011;55168;51.120;17.024;2022-07-29T01:09:00;6.6;;;4.2;;
68319;SDS011;55168;51.120;17.024;2022-07-29T01:10:00;6.6;;;4.2;;
68319;SDS011;55168;51.120;17.024;2022-07-29T01:11:01;6.6;;;4.2;;
68319;SDS011;55168;51.120;17.024;2022-07-29T01:12:00;6.6;;;4.2;;
68319;SDS011;55168;51.120;17.024;2022-07-29T01:13:01;6.3;;;4.4;;
68319;SDS011;55168;51.120;17.024;2022-07-29T01:14:00;6.3;;;4.4;;
68319;SDS011;55168;51.120;17.024;2022-07-29T01:15:01;6.3;;;4.4;;
68319;SDS011;55168;51.120;17.024;2022-07-29T01:16:10;6.3;;;4.4;;
68319;SDS011;55168;51.120;17.024;2022-07-29T01:17:08;6.3;;;4.4;;
68319;SDS011;55168;51.120;17.024;2022-07-29T01:18:11;6.5;;;4.4;;
68319;SDS011;55168;51.120;17.024;2022-07-29T01:19:13;6.5;;;4.4;;
68319;SDS011;55168;51.120;17.024;2022-07-29T01:20:07;6.5;;;4.4;;
68319;SDS011;55168;51.120;17.024;2022-07-29T01:22:28;6.5;;;4.4;;
68319;SDS011;55168;51.120;17.024;2022-07-29T01:23:18;6.7;;;4.4;;
68319;SDS011;55168;51.120;17.024;2022-07-29T01:25:19;6.7;;;4.4;;
68319;SDS011;55168;51.120;17.024;2022-07-29T01:26:10;6.7;;;4.4;;
68319;SDS011;55168;51.120;17.024;2022-07-29T01:27:18;6.7;;;4.4;;
68319;SDS011;55168;51.120;17.024;2022-07-29T01:29:12;5.7;;;4.3;;
68319;SDS011;55168;51.120;17.024;2022-07-29T01:30:02;5.7;;;4.3;;
68319;SDS011;55168;51.120;17.024;2022-07-29T01:31:02;5.7;;;4.3;;
68319;SDS011;55168;51.120;17.024;2022-07-29T01:32:06;5.7;;;4.3;;
68319;SDS011;55168;51.120;17.024;2022-07-29T01:33:03;4.7;;;4.0;;
68319;SDS011;55168;51.120;17.024;2022-07-29T01:34:03;4.7;;;4.0;;
68319;SDS011;55168;51.120;17.024;2022-07-29T01:35:15;4.7;;;4.0;;
68319;SDS011;55168;51.120;17.024;2022-07-29T01:36:02;4.7;;;4.0;;
68319;SDS011;55168;51.120;17.024;2022-07-29T01:37:08;4.7;;;4.0;;
68319;SDS011;55168;51.120;17.024;2022-07-29T01:38:05;7.3;;;4.4;;
68319;SDS011;55168;51.120;17.024;2022-07-29T01:39:08;7.3;;;4.4;;
68319;SDS011;55168;51.120;17.024;2022-07-29T01:40:02;7.3;;;4.4;;
68319;SDS011;55168;51.120;17.024;2022-07-29T01:41:05;7.3;;;4.4;;
68319;SDS011;55168;51.120;17.024;2022-07-29T01:43:04;7.1;;;4.3;;
68319;SDS011;55168;51.120;17.024;2022-07-29T01:44:10;7.1;;;4.3;;
68319;SDS011;55168;51.120;17.024;2022-07-29T01:46:04;7.1;;;4.3;;
68319;SDS011;55168;51.120;17.024;2022-07-29T01:47:02;7.1;;;4.3;;
68319;SDS011;55168;51.120;17.024;2022-07-29T01:48:05;6.2;;;4.1;;
68319;SDS011;55168;51.120;17.024;2022-07-29T01:49:05;6.2;;;4.1;;
68319;SDS011;55168;51.120;17.024;2022-07-29T01:50:01;6.2;;;4.1;;
68319;SDS011;55168;51.120;17.024;2022-07-29T01:52:06;6.2;;;4.1;;
68319;SDS011;55168;51.120;17.024;2022-07-29T01:53:02;8.8;;;4.4;;
68319;SDS011;55168;51.120;17.024;2022-07-29T01:55:05;8.8;;;4.4;;
68319;SDS011;55168;51.120;17.024;2022-07-29T01:56:02;8.8;;;4.4;;
68319;SDS011;55168;51.120;17.024;2022-07-29T01:57:00;8.8;;;4.4;;
68319;SDS011;55168;51.120;17.024;2022-07-29T01:58:02;6.4;;;4.5;;
68319;SDS011;55168;51.120;17.024;2022-07-29T01:59:01;6.4;;;4.5;;
68319;SDS011;55168;51.120;17.024;2022-07-29T02:00:00;6.4;;;4.5;;
68319;SDS011;55168;51.120;17.024;2022-07-29T02:01:01;6.4;;;4.5;;
68319;SDS011;55168;51.120;17.024;2022-07-29T02:02:00;6.4;;;4.5;;
68319;SDS011;55168;51.120;17.024;2022-07-29T02:03:05;6.2;;;4.5;;
68319;SDS011;55168;51.120;17.024;2022-07-29T02:04:03;6.2;;;4.5;;
68319;SDS011;55168;51.120;17.024;2022-07-29T02:05:02;6.2;;;4.5;;
68319;SDS011;55168;51.120;17.024;2022-07-29T02:06:01;6.2;;;4.5;;
68319;SDS011;55168;51.120;17.024;2022-07-29T02:07:02;6.2;;;4.5;;
68319;SDS011;55168;51.120;17.024;2022-07-29T02:08:01;9.0;;;4.6;;
68319;SDS011;55168;51.120;17.024;2022-07-29T02:09:02;9.0;;;4.6;;
68319;SDS011;55168;51.120;17.024;2022-07-29T02:10:03;9.0;;;4.6;;
68319;SDS011;55168;51.120;17.024;2022-07-29T02:11:02;9.0;;;4.6;;
68319;SDS011;55168;51.120;17.024;2022-07-29T02:12:02;9.0;;;4.6;;
68319;SDS011;55168;51.120;17.024;2022-07-29T02:13:02;7.2;;;4.4;;
68319;SDS011;55168;51.120;17.024;2022-07-29T02:14:00;7.2;;;4.4;;
68319;SDS011;55168;51.120;17.024;2022-07-29T02:15:01;7.2;;;4.4;;
68319;SDS011;55168;51.120;17.024;2022-07-29T02:16:00;7.2;;;4.4;;
68319;SDS011;55168;51.120;17.024;2022-07-29T02:17:01;7.2;;;4.4;;
68319;SDS011;55168;51.120;17.024;2022-07-29T02:18:06;7.0;;;4.7;;
68319;SDS011;55168;51.120;17.024;2022-07-29T02:19:01;7.0;;;4.7;;
68319;SDS011;55168;51.120;17.024;2022-07-29T02:20:02;7.0;;;4.7;;
68319;SDS011;55168;51.120;17.024;2022-07-29T02:21:00;7.0;;;4.7;;
68319;SDS011;55168;51.120;17.024;2022-07-29T02:22:00;7.0;;;4.7;;
68319;SDS011;55168;51.120;17.024;2022-07-29T02:23:00;6.2;;;4.6;;
68319;SDS011;55168;51.120;17.024;2022-07-29T02:24:01;6.2;;;4.6;;
68319;SDS011;55168;51.120;17.024;2022-07-29T02:25:00;6.2;;;4.6;;
68319;SDS011;55168;51.120;17.024;2022-07-29T02:26:00;6.2;;;4.6;;
68319;SDS011;55168;51.120;17.024;2022-07-29T02:27:00;6.2;;;4.6;;
68319;SDS011;55168;51.120;17.024;2022-07-29T02:28:00;7.8;;;4.6;;
68319;SDS011;55168;51.120;17.024;2022-07-29T02:29:01;7.8;;;4.6;;
68319;SDS011;55168;51.120;17.024;2022-07-29T02:30:03;7.8;;;4.6;;
68319;SDS011;55168;51.120;17.024;2022-07-29T02:31:02;7.8;;;4.6;;
68319;SDS011;55168;51.120;17.024;2022-07-29T02:32:00;7.8;;;4.6;;
68319;SDS011;55168;51.120;17.024;2022-07-29T02:33:00;7.3;;;4.5;;
68319;SDS011;55168;51.120;17.024;2022-07-29T02:34:02;7.3;;;4.5;;
68319;SDS011;55168;51.120;17.024;2022-07-29T02:35:00;7.3;;;4.5;;
68319;SDS011;55168;51.120;17.024;2022-07-29T02:36:01;7.3;;;4.5;;
68319;SDS011;55168;51.120;17.024;2022-07-29T02:37:00;7.3;;;4.5;;
68319;SDS011;55168;51.120;17.024;2022-07-29T02:38:00;5.6;;;4.4;;
68319;SDS011;55168;51.120;17.024;2022-07-29T02:39:02;5.6;;;4.4;;
68319;SDS011;55168;51.120;17.024;2022-07-29T02:40:01;5.6;;;4.4;;
68319;SDS011;55168;51.120;17.024;2022-07-29T02:41:04;5.6;;;4.4;;
68319;SDS011;55168;51.120;17.024;2022-07-29T02:42:03;5.6;;;4.4;;
68319;SDS011;55168;51.120;17.024;2022-07-29T02:43:01;5.8;;;4.6;;
68319;SDS011;55168;51.120;17.024;2022-07-29T02:44:08;5.8;;;4.6;;
68319;SDS011;55168;51.120;17.024;2022-07-29T02:45:00;5.8;;;4.6;;
68319;SDS011;55168;51.120;17.024;2022-07-29T02:46:00;5.8;;;4.6;;
68319;SDS011;55168;51.120;17.024;2022-07-29T02:47:27;5.8;;;4.6;;
68319;SDS011;55168;51.120;17.024;2022-07-29T02:48:05;6.3;;;4.6;;
68319;SDS011;55168;51.120;17.024;2022-07-29T02:49:04;6.3;;;4.6;;
68319;SDS011;55168;51.120;17.024;2022-07-29T02:50:03;6.3;;;4.6;;
68319;SDS011;55168;51.120;17.024;2022-07-29T02:51:12;6.3;;;4.6;;
68319;SDS011;55168;51.120;17.024;2022-07-29T02:52:03;6.3;;;4.6;;
68319;SDS011;55168;51.120;17.024;2022-07-29T02:53:14;8.2;;;4.7;;
68319;SDS011;55168;51.120;17.024;2022-07-29T02:54:01;8.2;;;4.7;;
68319;SDS011;55168;51.120;17.024;2022-07-29T02:55:04;8.2;;;4.7;;
68319;SDS011;55168;51.120;17.024;2022-07-29T02:56:08;8.2;;;4.7;;
68319;SDS011;55168;51.120;17.024;2022-07-29T02:57:04;8.2;;;4.7;;
68319;SDS011;55168;51.120;17.024;2022-07-29T02:58:03;9.6;;;4.8;;
68319;SDS011;55168;51.120;17.024;2022-07-29T02:59:03;9.6;;;4.8;;
68319;SDS011;55168;51.120;17.024;2022-07-29T03:00:04;9.6;;;4.8;;
68319;SDS011;55168;51.120;17.024;2022-07-29T03:01:08;9.6;;;4.8;;
68319;SDS011;55168;51.120;17.024;2022-07-29T03:02:02;9.6;;;4.8;;
68319;SDS011;55168;51.120;17.024;2022-07-29T03:03:03;7.5;;;4.6;;
68319;SDS011;55168;51.120;17.024;2022-07-29T03:04:02;7.5;;;4.6;;
68319;SDS011;55168;51.120;17.024;2022-07-29T03:05:02;7.5;;;4.6;;
68319;SDS011;55168;51.120;17.024;2022-07-29T03:06:01;7.5;;;4.6;;
68319;SDS011;55168;51.120;17.024;2022-07-29T03:07:00;7.5;;;4.6;;
68319;SDS011;55168;51.120;17.024;2022-07-29T03:08:01;6.3;;;5.0;;
68319;SDS011;55168;51.120;17.024;2022-07-29T03:09:00;6.3;;;5.0;;
68319;SDS011;55168;51.120;17.024;2022-07-29T03:10:00;6.3;;;5.0;;
68319;SDS011;55168;51.120;17.024;2022-07-29T03:11:01;6.3;;;5.0;;
68319;SDS011;55168;51.120;17.024;2022-07-29T03:12:00;6.3;;;5.0;;
68319;SDS011;55168;51.120;17.024;2022-07-29T03:13:00;8.0;;;5.2;;
68319;SDS011;55168;51.120;17.024;2022-07-29T03:14:01;8.0;;;5.2;;
68319;SDS011;55168;51.120;17.024;2022-07-29T03:15:00;8.0;;;5.2;;
68319;SDS011;55168;51.120;17.024;2022-07-29T03:16:00;8.0;;;5.2;;
68319;SDS011;55168;51.120;17.024;2022-07-29T03:17:00;8.0;;;5.2;;
68319;SDS011;55168;51.120;17.024;2022-07-29T03:18:00;7.4;;;4.8;;
68319;SDS011;55168;51.120;17.024;2022-07-29T03:19:00;7.4;;;4.8;;
68319;SDS011;55168;51.120;17.024;2022-07-29T03:20:00;7.4;;;4.8;;
68319;SDS011;55168;51.120;17.024;2022-07-29T03:21:00;7.4;;;4.8;;
68319;SDS011;55168;51.120;17.024;2022-07-29T03:22:00;7.4;;;4.8;;
68319;SDS011;55168;51.120;17.024;2022-07-29T03:23:00;7.8;;;5.0;;
68319;SDS011;55168;51.120;17.024;2022-07-29T03:24:00;7.8;;;5.0;;
68319;SDS011;55168;51.120;17.024;2022-07-29T03:25:08;7.8;;;5.0;;
68319;SDS011;55168;51.120;17.024;2022-07-29T03:26:00;7.8;;;5.0;;
68319;SDS011;55168;51.120;17.024;2022-07-29T03:27:00;7.8;;;5.0;;
68319;SDS011;55168;51.120;17.024;2022-07-29T03:28:00;5.1;;;4.6;;
68319;SDS011;55168;51.120;17.024;2022-07-29T03:29:00;5.1;;;4.6;;
68319;SDS011;55168;51.120;17.024;2022-07-29T03:30:00;5.1;;;4.6;;
68319;SDS011;55168;51.120;17.024;2022-07-29T03:31:00;5.1;;;4.6;;
68319;SDS011;55168;51.120;17.024;2022-07-29T03:32:02;5.1;;;4.6;;
68319;SDS011;55168;51.120;17.024;2022-07-29T03:33:00;6.3;;;4.7;;
68319;SDS011;55168;51.120;17.024;2022-07-29T03:34:00;6.3;;;4.7;;
68319;SDS011;55168;51.120;17.024;2022-07-29T03:35:00;6.3;;;4.7;;
68319;SDS011;55168;51.120;17.024;2022-07-29T03:36:00;6.3;;;4.7;;
68319;SDS011;55168;51.120;17.024;2022-07-29T03:37:00;6.3;;;4.7;;
68319;SDS011;55168;51.120;17.024;2022-07-29T03:38:00;7.6;;;5.2;;
68319;SDS011;55168;51.120;17.024;2022-07-29T03:39:00;7.6;;;5.2;;
68319;SDS011;55168;51.120;17.024;2022-07-29T03:40:02;7.6;;;5.2;;
68319;SDS011;55168;51.120;17.024;2022-07-29T03:41:04;7.6;;;5.2;;
68319;SDS011;55168;51.120;17.024;2022-07-29T03:42:00;7.6;;;5.2;;
68319;SDS011;55168;51.120;17.024;2022-07-29T03:43:00;7.3;;;5.0;;
68319;SDS011;55168;51.120;17.024;2022-07-29T03:44:00;7.3;;;5.0;;
68319;SDS011;55168;51.120;17.024;2022-07-29T03:45:03;7.3;;;5.0;;
68319;SDS011;55168;51.120;17.024;2022-07-29T03:46:01;7.3;;;5.0;;
68319;SDS011;55168;51.120;17.024;2022-07-29T03:47:01;7.3;;;5.0;;
68319;SDS011;55168;51.120;17.024;2022-07-29T03:48:04;7.3;;;4.9;;
68319;SDS011;55168;51.120;17.024;2022-07-29T03:49:01;7.3;;;4.9;;
68319;SDS011;55168;51.120;17.024;2022-07-29T03:50:04;7.3;;;4.9;;
68319;SDS011;55168;51.120;17.024;2022-07-29T03:51:00;7.3;;;4.9;;
68319;SDS011;55168;51.120;17.024;2022-07-29T03:52:00;7.3;;;4.9;;
68319;SDS011;55168;51.120;17.024;2022-07-29T03:53:00;7.5;;;5.0;;
68319;SDS011;55168;51.120;17.024;2022-07-29T03:54:02;7.5;;;5.0;;
68319;SDS011;55168;51.120;17.024;2022-07-29T03:55:01;7.5;;;5.0;;
68319;SDS011;55168;51.120;17.024;2022-07-29T03:56:01;7.5;;;5.0;;
68319;SDS011;55168;51.120;17.024;2022-07-29T03:57:02;7.5;;;5.0;;
68319;SDS011;55168;51.120;17.024;2022-07-29T03:58:00;7.5;;;5.3;;
68319;SDS011;55168;51.120;17.024;2022-07-29T03:59:01;7.5;;;5.3;;
68319;SDS011;55168;51.120;17.024;2022-07-29T04:00:01;7.5;;;5.3;;
68319;SDS011;55168;51.120;17.024;2022-07-29T04:01:00;7.5;;;5.3;;
68319;SDS011;55168;51.120;17.024;2022-07-29T04:02:01;7.5;;;5.3;;
68319;SDS011;55168;51.120;17.024;2022-07-29T04:03:01;8.8;;;5.3;;
68319;SDS011;55168;51.120;17.024;2022-07-29T04:04:01;8.8;;;5.3;;
68319;SDS011;55168;51.120;17.024;2022-07-29T04:05:00;8.8;;;5.3;;
68319;SDS011;55168;51.120;17.024;2022-07-29T04:06:01;8.8;;;5.3;;
68319;SDS011;55168;51.120;17.024;2022-07-29T04:07:00;8.8;;;5.3;;
68319;SDS011;55168;51.120;17.024;2022-07-29T04:08:00;7.3;;;4.8;;
68319;SDS011;55168;51.120;17.024;2022-07-29T04:09:00;7.3;;;4.8;;
68319;SDS011;55168;51.120;17.024;2022-07-29T04:10:00;7.3;;;4.8;;
68319;SDS011;55168;51.120;17.024;2022-07-29T04:11:01;7.3;;;4.8;;
68319;SDS011;55168;51.120;17.024;2022-07-29T04:12:00;7.3;;;4.8;;
68319;SDS011;55168;51.120;17.024;2022-07-29T04:13:00;8.5;;;5.5;;
68319;SDS011;55168;51.120;17.024;2022-07-29T04:14:00;8.5;;;5.5;;
68319;SDS011;55168;51.120;17.024;2022-07-29T04:15:00;8.5;;;5.5;;
68319;SDS011;55168;51.120;17.024;2022-07-29T04:16:00;8.5;;;5.5;;
68319;SDS011;55168;51.120;17.024;2022-07-29T04:17:01;8.5;;;5.5;;
68319;SDS011;55168;51.120;17.024;2022-07-29T04:18:00;6.6;;;4.9;;
68319;SDS011;55168;51.120;17.024;2022-07-29T04:19:00;6.6;;;4.9;;
68319;SDS011;55168;51.120;17.024;2022-07-29T04:20:00;6.6;;;4.9;;
68319;SDS011;55168;51.120;17.024;2022-07-29T04:21:00;6.6;;;4.9;;
68319;SDS011;55168;51.120;17.024;2022-07-29T04:22:00;6.6;;;4.9;;
68319;SDS011;55168;51.120;17.024;2022-07-29T04:23:00;6.9;;;5.2;;
68319;SDS011;55168;51.120;17.024;2022-07-29T04:24:00;6.9;;;5.2;;
68319;SDS011;55168;51.120;17.024;2022-07-29T04:25:00;6.9;;;5.2;;
68319;SDS011;55168;51.120;17.024;2022-07-29T04:26:00;6.9;;;5.2;;
68319;SDS011;55168;51.120;17.024;2022-07-29T04:27:00;6.9;;;5.2;;
68319;SDS011;55168;51.120;17.024;2022-07-29T04:28:00;6.0;;;5.0;;
68319;SDS011;55168;51.120;17.024;2022-07-29T04:29:00;6.0;;;5.0;;
68319;SDS011;55168;51.120;17.024;2022-07-29T04:30:00;6.0;;;5.0;;
68319;SDS011;55168;51.120;17.024;2022-07-29T04:31:00;6.0;;;5.0;;
68319;SDS011;55168;51.120;17.024;2022-07-29T04:32:00;6.0;;;5.0;;
68319;SDS011;55168;51.120;17.024;2022-07-29T04:33:01;9.9;;;5.0;;
68319;SDS011;55168;51.120;17.024;2022-07-29T04:34:00;9.9;;;5.0;;
68319;SDS011;55168;51.120;17.024;2022-07-29T04:35:00;9.9;;;5.0;;
68319;SDS011;55168;51.120;17.024;2022-07-29T04:36:00;9.9;;;5.0;;
68319;SDS011;55168;51.120;17.024;2022-07-29T04:37:00;9.9;;;5.0;;
68319;SDS011;55168;51.120;17.024;2022-07-29T04:38:00;7.7;;;4.9;;
68319;SDS011;55168;51.120;17.024;2022-07-29T04:39:00;7.7;;;4.9;;
68319;SDS011;55168;51.120;17.024;2022-07-29T04:40:00;7.7;;;4.9;;
68319;SDS011;55168;51.120;17.024;2022-07-29T04:41:00;7.7;;;4.9;;
68319;SDS011;55168;51.120;17.024;2022-07-29T04:42:00;7.7;;;4.9;;
68319;SDS011;55168;51.120;17.024;2022-07-29T04:43:00;6.4;;;4.5;;
68319;SDS011;55168;51.120;17.024;2022-07-29T04:44:00;6.4;;;4.5;;
68319;SDS011;55168;51.120;17.024;2022-07-29T04:45:00;6.4;;;4.5;;
68319;SDS011;55168;51.120;17.024;2022-07-29T04:46:00;6.4;;;4.5;;
68319;SDS011;55168;51.120;17.024;2022-07-29T04:47:00;6.4;;;4.5;;
68319;SDS011;55168;51.120;17.024;2022-07-29T04:48:00;7.4;;;5.0;;
68319;SDS011;55168;51.120;17.024;2022-07-29T04:49:00;7.4;;;5.0;;
68319;SDS011;55168;51.120;17.024;2022-07-29T04:50:00;7.4;;;5.0;;
68319;SDS011;55168;51.120;17.024;2022-07-29T04:51:00;7.4;;;5.0;;
68319;SDS011;55168;51.120;17.024;2022-07-29T04:52:00;7.4;;;5.0;;
68319;SDS011;55168;51.120;17.024;2022-07-29T04:53:00;6.8;;;4.6;;
68319;SDS011;55168;51.120;17.024;2022-07-29T04:54:00;6.8;;;4.6;;
68319;SDS011;55168;51.120;17.024;2022-07-29T04:55:00;6.8;;;4.6;;
68319;SDS011;55168;51.120;17.024;2022-07-29T04:56:00;6.8;;;4.6;;
68319;SDS011;55168;51.120;17.024;2022-07-29T04:57:00;6.8;;;4.6;;
68319;SDS011;55168;51.120;17.024;2022-07-29T04:58:00;6.0;;;4.6;;
68319;SDS011;55168;51.120;17.024;2022-07-29T04:59:00;6.0;;;4.6;;
68319;SDS011;55168;51.120;17.024;2022-07-29T05:00:00;6.0;;;4.6;;
68319;SDS011;55168;51.120;17.024;2022-07-29T05:01:00;6.0;;;4.6;;
68319;SDS011;55168;51.120;17.024;2022-07-29T05:02:00;6.0;;;4.6;;
68319;SDS011;55168;51.120;17.024;2022-07-29T05:03:00;7.0;;;4.7;;
68319;SDS011;55168;51.120;17.024;2022-07-29T05:04:00;7.0;;;4.7;;
68319;SDS011;55168;51.120;17.024;2022-07-29T05:05:00;7.0;;;4.7;;
68319;SDS011;55168;51.120;17.024;2022-07-29T05:06:00;7.0;;;4.7;;
68319;SDS011;55168;51.120;17.024;2022-07-29T05:07:00;7.0;;;4.7;;
68319;SDS011;55168;51.120;17.024;2022-07-29T05:08:00;5.6;;;4.1;;
68319;SDS011;55168;51.120;17.024;2022-07-29T05:09:00;5.6;;;4.1;;
68319;SDS011;55168;51.120;17.024;2022-07-29T05:10:00;5.6;;;4.1;;
68319;SDS011;55168;51.120;17.024;2022-07-29T05:11:00;5.6;;;4.1;;
68319;SDS011;55168;51.120;17.024;2022-07-29T05:12:00;5.6;;;4.1;;
68319;SDS011;55168;51.120;17.024;2022-07-29T05:13:00;6.4;;;4.3;;
68319;SDS011;55168;51.120;17.024;2022-07-29T05:14:00;6.4;;;4.3;;
68319;SDS011;55168;51.120;17.024;2022-07-29T05:15:00;6.4;;;4.3;;
68319;SDS011;55168;51.120;17.024;2022-07-29T05:16:00;6.4;;;4.3;;
68319;SDS011;55168;51.120;17.024;2022-07-29T05:17:00;6.4;;;4.3;;
68319;SDS011;55168;51.120;17.024;2022-07-29T05:18:00;6.2;;;4.2;;
68319;SDS011;55168;51.120;17.024;2022-07-29T05:19:00;6.2;;;4.2;;
68319;SDS011;55168;51.120;17.024;2022-07-29T05:20:00;6.2;;;4.2;;
68319;SDS011;55168;51.120;17.024;2022-07-29T05:21:00;6.2;;;4.2;;
68319;SDS011;55168;51.120;17.024;2022-07-29T05:22:00;6.2;;;4.2;;
68319;SDS011;55168;51.120;17.024;2022-07-29T05:23:01;5.6;;;4.2;;
68319;SDS011;55168;51.120;17.024;2022-07-29T05:24:00;5.6;;;4.2;;
68319;SDS011;55168;51.120;17.024;2022-07-29T05:25:00;5.6;;;4.2;;
68319;SDS011;55168;51.120;17.024;2022-07-29T05:26:00;5.6;;;4.2;;
68319;SDS011;55168;51.120;17.024;2022-07-29T05:27:00;5.6;;;4.2;;
68319;SDS011;55168;51.120;17.024;2022-07-29T05:28:00;6.4;;;4.1;;
68319;SDS011;55168;51.120;17.024;2022-07-29T05:29:00;6.4;;;4.1;;
68319;SDS011;55168;51.120;17.024;2022-07-29T05:30:00;6.4;;;4.1;;
68319;SDS011;55168;51.120;17.024;2022-07-29T05:31:00;6.4;;;4.1;;
68319;SDS011;55168;51.120;17.024;2022-07-29T05:32:00;6.4;;;4.1;;
68319;SDS011;55168;51.120;17.024;2022-07-29T05:33:00;5.1;;;4.4;;
68319;SDS011;55168;51.120;17.024;2022-07-29T05:34:00;5.1;;;4.4;;
68319;SDS011;55168;51.120;17.024;2022-07-29T05:35:00;5.1;;;4.4;;
68319;SDS011;55168;51.120;17.024;2022-07-29T05:36:00;5.1;;;4.4;;
68319;SDS011;55168;51.120;17.024;2022-07-29T05:37:00;5.1;;;4.4;;
68319;SDS011;55168;51.120;17.024;2022-07-29T05:38:00;5.6;;;4.2;;
68319;SDS011;55168;51.120;17.024;2022-07-29T05:39:00;5.6;;;4.2;;
68319;SDS011;55168;51.120;17.024;2022-07-29T05:40:00;5.6;;;4.2;;
68319;SDS011;55168;51.120;17.024;2022-07-29T05:41:00;5.6;;;4.2;;
68319;SDS011;55168;51.120;17.024;2022-07-29T05:42:00;5.6;;;4.2;;
68319;SDS011;55168;51.120;17.024;2022-07-29T05:43:00;7.7;;;4.7;;
68319;SDS011;55168;51.120;17.024;2022-07-29T05:44:00;7.7;;;4.7;;
68319;SDS011;55168;51.120;17.024;2022-07-29T05:45:01;7.7;;;4.7;;
68319;SDS011;55168;51.120;17.024;2022-07-29T05:46:00;7.7;;;4.7;;
68319;SDS011;55168;51.120;17.024;2022-07-29T05:47:00;7.7;;;4.7;;
68319;SDS011;55168;51.120;17.024;2022-07-29T05:48:00;6.7;;;4.3;;
68319;SDS011;55168;51.120;17.024;2022-07-29T05:49:00;6.7;;;4.3;;
68319;SDS011;55168;51.120;17.024;2022-07-29T05:50:00;6.7;;;4.3;;
68319;SDS011;55168;51.120;17.024;2022-07-29T05:51:00;6.7;;;4.3;;
68319;SDS011;55168;51.120;17.024;2022-07-29T05:52:00;6.7;;;4.3;;
68319;SDS011;55168;51.120;17.024;2022-07-29T05:53:00;6.6;;;4.2;;
68319;SDS011;55168;51.120;17.024;2022-07-29T05:54:00;6.6;;;4.2;;
68319;SDS011;55168;51.120;17.024;2022-07-29T05:55:00;6.6;;;4.2;;
68319;SDS011;55168;51.120;17.024;2022-07-29T05:56:03;6.6;;;4.2;;
68319;SDS011;55168;51.120;17.024;2022-07-29T05:57:00;6.6;;;4.2;;
68319;SDS011;55168;51.120;17.024;2022-07-29T05:58:00;6.2;;;4.5;;
68319;SDS011;55168;51.120;17.024;2022-07-29T05:59:00;6.2;;;4.5;;
68319;SDS011;55168;51.120;17.024;2022-07-29T06:00:00;6.2;;;4.5;;
68319;SDS011;55168;51.120;17.024;2022-07-29T06:01:00;6.2;;;4.5;;
68319;SDS011;55168;51.120;17.024;2022-07-29T06:02:00;6.2;;;4.5;;
68319;SDS011;55168;51.120;17.024;2022-07-29T06:03:00;10.2;;;4.2;;
68319;SDS011;55168;51.120;17.024;2022-07-29T06:04:00;10.2;;;4.2;;
68319;SDS011;55168;51.120;17.024;2022-07-29T06:05:00;10.2;;;4.2;;
68319;SDS011;55168;51.120;17.024;2022-07-29T06:06:00;10.2;;;4.2;;
68319;SDS011;55168;51.120;17.024;2022-07-29T06:07:00;10.2;;;4.2;;
68319;SDS011;55168;51.120;17.024;2022-07-29T06:08:00;8.1;;;4.3;;
68319;SDS011;55168;51.120;17.024;2022-07-29T06:09:01;8.1;;;4.3;;
68319;SDS011;55168;51.120;17.024;2022-07-29T06:10:00;8.1;;;4.3;;
68319;SDS011;55168;51.120;17.024;2022-07-29T06:11:00;8.1;;;4.3;;
68319;SDS011;55168;51.120;17.024;2022-07-29T06:12:00;8.1;;;4.3;;
68319;SDS011;55168;51.120;17.024;2022-07-29T06:13:00;6.3;;;4.1;;